Time;durP1;ratioP1;P1;durP2;ratioP2;P2;SDS_P1;SDS_P2;PMS_P1;PMS_P2;Temp;Humidity;BMP_temperature;BMP_pressure;BME280_temperature;BME280_humidity;BME280_pressure;Samples;Min_cycle;Max_cycle;Signal;HPM_P1;HPM_P2
2021/03/27 00:00:25;;;;;;;5.63;4.20;;;8.10;63.10;;;;;;5069607;28;20255;-88
2021/03/27 00:02:57;;;;;;;6.43;4.00;;;8.10;63.80;;;;;;5066631;28;20223;-87
2021/03/27 00:05:27;;;;;;;6.77;3.73;;;8.10;64.10;;;;;;5063743;28;20317;-88
2021/03/27 00:08:07;;;;;;;5.97;3.80;;;7.90;64.80;;;;;;5064404;28;20704;-87
2021/03/27 00:10:39;;;;;;;4.80;3.50;;;7.90;65.60;;;;;;5060410;28;20611;-88
2021/03/27 00:13:17;;;;;;;6.90;3.90;;;7.90;64.50;;;;;;5057782;28;20285;-89
2021/03/27 00:15:53;;;;;;;4.27;3.87;;;8.00;67.00;;;;;;5045244;28;20313;-87
2021/03/27 00:18:23;;;;;;;7.43;3.67;;;8.10;64.90;;;;;;5044857;28;20211;-88
2021/03/27 00:20:55;;;;;;;6.05;3.20;;;8.20;62.80;;;;;;5057271;28;20241;-87
2021/03/27 00:23:25;;;;;;;6.20;3.37;;;8.20;64.60;;;;;;5061246;28;20235;-87
2021/03/27 00:25:54;;;;;;;4.27;3.30;;;8.30;64.90;;;;;;5049793;28;20218;-87
2021/03/27 00:28:27;;;;;;;4.50;3.07;;;8.30;62.90;;;;;;5044497;28;20206;-87
2021/03/27 00:30:58;;;;;;;6.03;3.23;;;8.40;62.20;;;;;;5040487;28;20261;-88
2021/03/27 00:33:28;;;;;;;4.37;2.90;;;8.50;62.30;;;;;;5044172;28;20237;-90
2021/03/27 00:35:58;;;;;;;6.13;3.67;;;8.60;61.60;;;;;;5034804;28;20248;-88
2021/03/27 00:38:33;;;;;;;7.32;3.22;;;8.60;60.90;;;;;;5045017;28;20297;-88
2021/03/27 00:41:00;;;;;;;6.78;3.83;;;8.70;60.00;;;;;;5035306;28;20221;-87
2021/03/27 00:43:31;;;;;;;5.45;2.95;;;8.70;59.20;;;;;;5045675;28;20246;-87
2021/03/27 00:46:00;;;;;;;3.90;2.90;;;8.70;58.70;;;;;;5047030;28;20231;-87
2021/03/27 00:48:30;;;;;;;4.35;3.10;;;8.70;59.20;;;;;;5045045;28;20284;-87
2021/03/27 00:50:59;;;;;;;4.28;2.75;;;8.70;58.20;;;;;;5045938;28;20277;-87
2021/03/27 00:53:31;;;;;;;4.25;2.97;;;8.80;57.10;;;;;;5046360;28;20209;-87
2021/03/27 00:56:03;;;;;;;4.93;3.05;;;8.90;56.60;;;;;;5046125;28;20238;-87
2021/03/27 00:58:34;;;;;;;5.00;3.00;;;8.90;56.90;;;;;;5046715;28;20209;-87
2021/03/27 01:01:04;;;;;;;3.75;3.13;;;9.00;56.60;;;;;;5047361;28;20236;-87
2021/03/27 01:03:34;;;;;;;7.75;3.17;;;9.00;56.90;;;;;;5047727;28;20305;-87
2021/03/27 01:06:02;;;;;;;5.80;3.20;;;9.10;56.60;;;;;;5041730;28;20290;-87
2021/03/27 01:08:30;;;;;;;4.85;2.70;;;9.00;55.90;;;;;;5044136;28;20257;-88
2021/03/27 01:11:00;;;;;;;8.15;3.55;;;9.00;56.70;;;;;;5042305;28;20230;-87
2021/03/27 01:13:33;;;;;;;4.93;3.13;;;9.10;56.90;;;;;;5040342;28;20650;-91
2021/03/27 01:16:02;;;;;;;6.03;3.10;;;9.10;56.90;;;;;;5044899;28;20222;-88
2021/03/27 01:18:34;;;;;;;6.05;3.20;;;9.00;57.30;;;;;;5048222;28;20732;-88
2021/03/27 01:21:07;;;;;;;5.40;3.50;;;9.10;57.10;;;;;;5036442;28;20219;-88
2021/03/27 01:23:34;;;;;;;5.75;2.90;;;9.00;58.20;;;;;;5047198;28;20226;-88
2021/03/27 01:26:05;;;;;;;5.55;3.10;;;9.00;58.40;;;;;;5041104;28;20265;-87
2021/03/27 01:28:37;;;;;;;4.33;2.97;;;9.00;58.00;;;;;;5048521;28;20198;-87
2021/03/27 01:31:12;;;;;;;5.10;3.15;;;9.00;57.80;;;;;;5041116;28;20242;-89
2021/03/27 01:33:50;;;;;;;5.85;3.25;;;9.00;58.10;;;;;;5045982;28;20214;-87
2021/03/27 01:36:19;;;;;;;6.80;3.00;;;8.90;58.60;;;;;;5047727;28;20214;-89
2021/03/27 01:38:50;;;;;;;5.43;2.92;;;8.90;58.50;;;;;;5047424;28;20759;-88
2021/03/27 01:41:28;;;;;;;4.25;3.30;;;9.10;57.70;;;;;;5036641;28;20225;-88
2021/03/27 01:44:04;;;;;;;6.72;3.22;;;9.10;57.20;;;;;;5046849;28;20555;-89
2021/03/27 01:46:39;;;;;;;3.75;3.10;;;9.20;56.10;;;;;;5040953;28;20253;-88
2021/03/27 01:49:22;;;;;;;3.08;2.50;;;9.10;55.40;;;;;;5040307;28;20605;-89
2021/03/27 01:52:19;;;;;;;4.15;3.05;;;9.10;56.00;;;;;;5046565;28;20204;-88
2021/03/27 01:55:05;;;;;;;5.78;2.83;;;9.10;55.80;;;;;;5045056;28;20222;-89
2021/03/27 01:57:39;;;;;;;3.33;2.70;;;9.10;56.30;;;;;;5048096;28;20612;-88
2021/03/27 02:00:11;;;;;;;8.07;2.65;;;9.10;55.80;;;;;;5047310;28;20218;-89
2021/03/27 02:02:45;;;;;;;4.43;2.83;;;9.00;56.10;;;;;;5047401;28;20233;-89
2021/03/27 02:05:20;;;;;;;4.97;2.72;;;8.90;56.30;;;;;;5047650;28;20229;-87
2021/03/27 02:07:52;;;;;;;3.60;3.20;;;8.80;56.10;;;;;;5048023;28;20281;-87
2021/03/27 02:10:29;;;;;;;3.47;2.47;;;8.90;57.60;;;;;;5047266;28;20226;-88
2021/03/27 02:13:00;;;;;;;3.97;2.50;;;8.90;56.10;;;;;;5046825;28;20202;-87
2021/03/27 02:15:42;;;;;;;3.42;2.70;;;9.00;57.30;;;;;;5058018;28;20275;-88
2021/03/27 02:18:18;;;;;;;7.13;3.25;;;8.90;57.90;;;;;;5060934;28;20271;-88
2021/03/27 02:21:23;;;;;;;2.95;2.60;;;8.80;58.30;;;;;;5046335;28;20226;-89
2021/03/27 02:24:04;;;;;;;4.82;2.72;;;8.80;57.80;;;;;;5032477;28;20217;-88
2021/03/27 02:26:43;;;;;;;4.82;2.75;;;8.90;57.20;;;;;;5046197;28;20226;-89
2021/03/27 02:29:43;;;;;;;4.07;3.15;;;9.00;57.30;;;;;;5046463;28;20263;-88
2021/03/27 02:32:15;;;;;;;4.25;2.80;;;9.00;57.60;;;;;;5032127;28;20202;-88
2021/03/27 02:34:45;;;;;;;4.57;2.72;;;9.00;56.80;;;;;;5043231;28;20314;-88
2021/03/27 02:37:21;;;;;;;4.03;2.83;;;9.00;56.50;;;;;;5046869;28;20194;-89
2021/03/27 02:39:55;;;;;;;6.57;2.55;;;9.00;56.90;;;;;;5043806;28;20236;-89
2021/03/27 02:42:39;;;;;;;4.85;2.97;;;9.00;57.10;;;;;;5034436;28;20249;-87
2021/03/27 02:45:11;;;;;;;4.78;2.40;;;9.00;58.60;;;;;;5044361;28;20223;-87
2021/03/27 02:47:45;;;;;;;2.83;2.50;;;9.00;58.10;;;;;;5046790;28;20206;-87
2021/03/27 02:50:32;;;;;;;6.03;2.63;;;8.90;58.40;;;;;;5046870;28;20699;-87
2021/03/27 02:53:06;;;;;;;4.60;2.70;;;8.90;58.50;;;;;;5039457;28;20210;-87
2021/03/27 02:55:42;;;;;;;4.73;3.03;;;8.60;58.30;;;;;;5046200;28;20222;-89
2021/03/27 02:58:18;;;;;;;4.23;2.73;;;8.40;59.50;;;;;;5029320;28;20209;-87
2021/03/27 03:00:57;;;;;;;3.47;2.87;;;8.20;59.80;;;;;;5058301;28;20220;-89
2021/03/27 03:03:29;;;;;;;2.92;2.60;;;8.20;59.90;;;;;;5067553;28;20597;-87
2021/03/27 03:06:02;;;;;;;6.60;3.40;;;8.20;61.00;;;;;;5068351;28;20320;-87
2021/03/27 03:08:33;;;;;;;4.37;3.20;;;8.20;59.60;;;;;;5067826;28;20227;-88
2021/03/27 03:11:07;;;;;;;5.53;3.67;;;8.10;60.70;;;;;;5064769;28;20313;-87
2021/03/27 03:13:37;;;;;;;4.82;3.28;;;8.00;60.00;;;;;;5065838;28;20298;-88
2021/03/27 03:16:11;;;;;;;4.90;3.57;;;8.00;59.80;;;;;;5049408;28;20222;-87
2021/03/27 03:18:44;;;;;;;4.70;3.40;;;8.00;59.60;;;;;;5047094;28;20190;-87
2021/03/27 03:21:20;;;;;;;6.47;3.47;;;8.20;59.10;;;;;;5063778;28;20225;-87
2021/03/27 03:23:57;;;;;;;9.13;3.77;;;8.30;57.60;;;;;;5065933;28;20197;-87
2021/03/27 03:26:35;;;;;;;4.23;3.43;;;8.40;57.60;;;;;;5067517;28;20221;-87
2021/03/27 03:29:12;;;;;;;5.97;3.53;;;8.30;57.70;;;;;;5055651;28;20201;-88
2021/03/27 03:32:02;;;;;;;5.60;3.57;;;8.30;58.60;;;;;;5049097;28;20323;-87
2021/03/27 03:34:51;;;;;;;4.70;3.30;;;8.30;58.80;;;;;;5057260;28;20232;-87
2021/03/27 03:37:22;;;;;;;6.53;3.77;;;8.30;59.10;;;;;;5061245;28;20201;-89
2021/03/27 03:40:14;;;;;;;6.50;4.20;;;8.30;58.70;;;;;;5051988;28;20230;-87
2021/03/27 03:43:08;;;;;;;5.23;3.80;;;8.30;59.10;;;;;;5042597;28;20230;-87
2021/03/27 03:45:53;;;;;;;4.75;3.45;;;8.30;58.70;;;;;;5044589;28;20227;-90
2021/03/27 03:48:48;;;;;;;4.30;3.57;;;8.40;59.00;;;;;;5037103;28;20214;-88
2021/03/27 03:51:24;;;;;;;7.68;5.75;;;8.40;59.10;;;;;;5038036;28;20234;-88
2021/03/27 03:54:08;;;;;;;8.27;5.03;;;8.40;59.80;;;;;;5038323;28;20209;-87
2021/03/27 03:56:40;;;;;;;5.53;4.10;;;8.40;59.60;;;;;;5037082;28;20230;-87
2021/03/27 03:59:20;;;;;;;7.77;4.50;;;8.40;59.80;;;;;;5034413;28;20201;-88
2021/03/27 04:01:52;;;;;;;5.68;3.95;;;8.40;59.80;;;;;;5032153;28;20225;-87
2021/03/27 04:04:23;;;;;;;6.93;4.10;;;8.50;60.40;;;;;;5039800;28;20199;-88
2021/03/27 04:06:55;;;;;;;10.43;4.43;;;8.60;60.30;;;;;;5046076;28;20202;-87
2021/03/27 04:09:26;;;;;;;7.65;4.60;;;8.60;60.70;;;;;;5045936;28;20557;-87
2021/03/27 04:12:11;;;;;;;7.40;4.65;;;8.70;61.90;;;;;;5044262;28;20195;-87
2021/03/27 04:14:49;;;;;;;6.32;4.43;;;8.80;62.70;;;;;;5045062;28;20230;-90
2021/03/27 04:17:22;;;;;;;7.63;4.35;;;8.80;61.50;;;;;;5045547;28;20198;-87
2021/03/27 04:19:56;;;;;;;6.57;4.65;;;8.80;62.30;;;;;;5044738;28;20276;-87
2021/03/27 04:22:28;;;;;;;7.65;4.20;;;8.80;63.20;;;;;;5043882;28;20218;-87
2021/03/27 04:25:33;;;;;;;5.88;4.50;;;9.00;62.90;;;;;;5042155;28;20234;-87
2021/03/27 04:28:10;;;;;;;6.50;4.60;;;9.00;62.70;;;;;;5014605;28;20202;-87
2021/03/27 04:30:50;;;;;;;6.47;4.03;;;9.00;62.70;;;;;;5044463;28;20249;-88
2021/03/27 04:33:31;;;;;;;6.63;4.50;;;9.00;63.80;;;;;;5039499;28;20197;-87
2021/03/27 04:36:06;;;;;;;6.00;4.53;;;9.00;63.50;;;;;;5039616;28;20629;-87
2021/03/27 04:38:39;;;;;;;7.07;4.50;;;9.00;63.90;;;;;;5042002;28;20220;-89
2021/03/27 04:41:28;;;;;;;6.47;4.25;;;9.00;63.20;;;;;;5041988;28;20222;-89
2021/03/27 04:44:07;;;;;;;8.10;4.32;;;8.90;63.60;;;;;;5033050;28;20203;-87
2021/03/27 04:46:42;;;;;;;8.50;4.90;;;8.90;64.70;;;;;;5048457;28;20226;-90
2021/03/27 04:49:17;;;;;;;5.38;4.55;;;8.80;65.00;;;;;;5044714;28;20269;-87
2021/03/27 04:51:53;;;;;;;9.70;4.95;;;8.90;65.50;;;;;;5046159;28;20268;-87
2021/03/27 04:54:34;;;;;;;6.63;4.28;;;9.00;65.30;;;;;;5043902;28;20206;-87
2021/03/27 04:57:13;;;;;;;5.20;4.55;;;9.00;65.20;;;;;;5020195;28;20285;-87
2021/03/27 04:59:52;;;;;;;5.68;4.53;;;9.00;65.20;;;;;;5048672;28;20225;-87
2021/03/27 05:02:26;;;;;;;9.52;4.72;;;9.10;65.10;;;;;;5064143;28;20251;-88
2021/03/27 05:05:01;;;;;;;8.15;4.55;;;9.20;63.00;;;;;;5054309;28;20368;-87
2021/03/27 05:07:38;;;;;;;7.53;4.88;;;9.30;63.90;;;;;;5042203;28;20664;-88
2021/03/27 05:10:11;;;;;;;6.13;4.35;;;9.30;64.10;;;;;;5052679;28;20596;-90
2021/03/27 05:12:55;;;;;;;5.85;4.90;;;9.40;65.00;;;;;;5065224;28;20240;-90
2021/03/27 05:15:27;;;;;;;8.55;4.70;;;9.50;65.20;;;;;;5053423;28;20218;-87
2021/03/27 05:18:28;;;;;;;7.32;5.03;;;9.60;67.60;;;;;;5029630;28;20197;-87
2021/03/27 05:21:01;;;;;;;7.07;5.75;;;9.70;67.60;;;;;;5041846;28;20233;-90
2021/03/27 05:23:41;;;;;;;7.93;5.50;;;9.70;70.50;;;;;;5038958;28;20227;-88
2021/03/27 05:26:17;;;;;;;7.82;4.97;;;9.70;71.80;;;;;;5024484;28;20240;-88
2021/03/27 05:29:04;;;;;;;10.45;6.03;;;9.70;70.90;;;;;;5047008;28;20261;-88
2021/03/27 05:31:37;;;;;;;6.68;5.55;;;9.60;72.30;;;;;;5046212;28;20226;-88
2021/03/27 05:34:15;;;;;;;7.93;5.68;;;9.70;72.60;;;;;;5046848;28;20201;-88
2021/03/27 05:37:09;;;;;;;7.57;5.70;;;9.60;75.50;;;;;;5040290;28;20214;-88
2021/03/27 05:39:40;;;;;;;11.45;6.32;;;9.60;74.50;;;;;;5015210;28;20253;-88
2021/03/27 05:42:56;;;;;;;10.35;5.60;;;9.70;74.70;;;;;;5044595;28;20229;-87
2021/03/27 05:45:54;;;;;;;8.07;5.90;;;9.70;74.60;;;;;;5046002;28;20255;-89
2021/03/27 05:48:48;;;;;;;7.93;5.95;;;9.70;74.60;;;;;;5046619;28;20210;-89
2021/03/27 05:51:43;;;;;;;7.63;5.90;;;9.70;74.60;;;;;;5063411;28;20225;-88
2021/03/27 05:54:20;;;;;;;7.35;5.90;;;9.80;74.70;;;;;;5056210;28;20208;-87
2021/03/27 05:57:17;;;;;;;11.32;6.60;;;9.80;74.70;;;;;;5038906;28;20206;-88
2021/03/27 06:00:14;;;;;;;13.30;6.30;;;9.80;74.70;;;;;;5037914;28;20760;-88
2021/03/27 06:02:52;;;;;;;7.35;5.93;;;9.80;74.70;;;;;;5057773;28;20281;-88
2021/03/27 06:05:35;;;;;;;14.40;6.70;;;9.90;74.90;;;;;;5070578;28;20267;-89
2021/03/27 06:08:28;;;;;;;9.32;6.65;;;10.00;72.90;;;;;;5064743;28;20206;-89
2021/03/27 06:11:19;;;;;;;10.90;6.82;;;10.00;72.90;;;;;;5069547;28;20214;-90
2021/03/27 06:14:11;;;;;;;7.13;5.93;;;10.10;73.10;;;;;;5050729;28;20206;-88
2021/03/27 06:17:05;;;;;;;7.43;5.85;;;10.10;73.00;;;;;;5043854;28;20218;-88
2021/03/27 06:20:04;;;;;;;15.25;6.22;;;10.10;73.10;;;;;;5046620;28;20230;-89
2021/03/27 06:22:56;;;;;;;12.60;4.80;;;10.10;73.10;;;;;;5051738;28;20224;-90
2021/03/27 06:25:55;;;;;;;8.85;4.43;;;10.20;73.20;;;;;;5044947;28;20257;-87
2021/03/27 06:28:42;;;;;;;4.95;4.15;;;10.20;73.20;;;;;;5034999;28;20597;-88
2021/03/27 06:31:25;;;;;;;10.38;4.30;;;10.20;73.30;;;;;;5041499;28;20230;-88
2021/03/27 06:34:18;;;;;;;7.47;3.78;;;10.20;73.20;;;;;;5042786;28;20203;-88
2021/03/27 06:37:17;;;;;;;7.85;3.38;;;10.20;72.60;;;;;;5039254;28;20221;-88
2021/03/27 06:40:32;;;;;;;5.18;3.25;;;10.30;73.30;;;;;;5045411;28;20316;-88
2021/03/27 06:43:22;;;;;;;5.25;2.67;;;10.30;71.10;;;;;;4998215;28;20258;-90
2021/03/27 06:46:00;;;;;;;5.55;2.95;;;10.30;69.90;;;;;;5055643;28;20227;-88
2021/03/27 06:48:59;;;;;;;5.00;2.97;;;10.30;69.80;;;;;;5057507;28;20202;-88
2021/03/27 06:51:52;;;;;;;3.17;2.58;;;10.30;69.00;;;;;;5057761;28;20236;-87
2021/03/27 06:54:54;;;;;;;5.30;2.85;;;10.40;68.30;;;;;;5060087;28;20206;-89
2021/03/27 06:57:31;;;;;;;4.28;2.65;;;10.30;68.30;;;;;;5061693;28;20206;-88
2021/03/27 07:00:45;;;;;;;5.30;2.75;;;10.40;68.10;;;;;;5061436;28;20240;-88
2021/03/27 07:03:52;;;;;;;2.88;2.08;;;10.40;68.10;;;;;;5010782;28;20222;-88
2021/03/27 07:06:55;;;;;;;3.90;2.38;;;10.40;66.60;;;;;;5060685;28;20227;-89
2021/03/27 07:09:58;;;;;;;5.88;2.97;;;10.50;66.30;;;;;;5062031;28;20236;-84
2021/03/27 07:12:36;;;;;;;5.18;2.70;;;10.60;64.70;;;;;;5055523;28;20288;-86
2021/03/27 07:15:39;;;;;;;5.13;2.78;;;10.70;65.50;;;;;;5059931;28;20226;-90
2021/03/27 07:18:25;;;;;;;15.45;3.05;;;10.80;65.30;;;;;;5059337;28;20284;-90
2021/03/27 07:21:23;;;;;;;6.45;3.03;;;10.80;63.40;;;;;;5054928;28;20232;-89
2021/03/27 07:24:24;;;;;;;4.45;2.53;;;10.80;63.20;;;;;;5060050;28;20285;-87
2021/03/27 07:27:33;;;;;;;2.90;2.38;;;10.80;63.30;;;;;;5059507;28;20257;-90
2021/03/27 07:30:23;;;;;;;5.03;2.83;;;10.80;64.00;;;;;;5054575;28;20660;-89
2021/03/27 07:33:07;;;;;;;6.20;2.95;;;10.90;64.90;;;;;;5056002;28;20224;-88
2021/03/27 07:35:50;;;;;;;4.60;2.58;;;10.80;65.60;;;;;;5051811;28;20233;-90
2021/03/27 07:38:36;;;;;;;3.70;2.10;;;10.50;66.60;;;;;;5055261;28;20209;-89
2021/03/27 07:41:38;;;;;;;3.92;2.97;;;10.30;69.90;;;;;;5050768;28;20240;-90
2021/03/27 07:44:24;;;;;;;4.35;2.25;;;10.10;70.60;;;;;;5053648;28;20229;-93
2021/03/27 07:47:36;;;;;;;2.75;2.13;;;9.90;74.90;;;;;;5039163;28;20209;-90
2021/03/27 07:50:25;;;;;;;3.45;1.20;;;9.70;77.10;;;;;;4955068;28;20220;-88
2021/03/27 07:53:03;;;;;;;1.40;1.10;;;9.10;79.50;;;;;;4944297;28;20198;-89
2021/03/27 07:56:14;;;;;;;1.53;1.03;;;8.40;82.60;;;;;;5013213;28;20316;-87
2021/03/27 07:59:18;;;;;;;1.00;0.60;;;7.80;87.30;;;;;;5031545;28;20194;-83
2021/03/27 08:02:02;;;;;;;3.93;1.07;;;7.60;90.20;;;;;;5022282;28;20228;-85
2021/03/27 08:05:03;;;;;;;1.83;1.30;;;7.50;90.10;;;;;;5015022;28;20210;-85
2021/03/27 08:08:11;;;;;;;0.90;0.90;;;7.30;90.40;;;;;;5039202;28;20593;-87
2021/03/27 08:11:09;;;;;;;2.27;0.80;;;7.30;91.20;;;;;;5042188;28;20221;-87
2021/03/27 08:14:01;;;;;;;1.40;0.90;;;7.20;91.20;;;;;;5036977;28;20201;-83
2021/03/27 08:16:38;;;;;;;2.90;0.90;;;7.10;91.00;;;;;;5040716;28;20226;-83
2021/03/27 08:20:03;;;;;;;1.03;0.87;;;7.10;91.50;;;;;;5044386;28;20182;-82
2021/03/27 08:23:00;;;;;;;1.90;0.90;;;7.00;90.90;;;;;;5030424;28;20274;-85
2021/03/27 08:25:37;;;;;;;2.80;1.13;;;6.90;90.80;;;;;;5042287;28;20230;-83
2021/03/27 08:28:51;;;;;;;1.00;0.90;;;6.80;90.90;;;;;;5044111;28;20199;-85
2021/03/27 08:31:46;;;;;;;1.50;1.00;;;6.80;90.00;;;;;;5021485;28;20262;-85
2021/03/27 08:34:52;;;;;;;3.77;0.93;;;6.90;90.00;;;;;;5021110;28;20642;-85
2021/03/27 08:37:36;;;;;;;3.07;0.80;;;6.90;88.50;;;;;;4999496;28;20207;-85
2021/03/27 08:40:43;;;;;;;0.80;0.60;;;7.00;88.10;;;;;;5035028;28;20222;-87
2021/03/27 08:43:32;;;;;;;1.90;0.93;;;7.20;85.70;;;;;;5039896;28;20222;-84
2021/03/27 08:46:33;;;;;;;2.07;0.93;;;7.30;85.90;;;;;;5036708;28;20258;-85
2021/03/27 08:53:05;;;;;;;1.80;0.73;;;7.80;83.70;;;;;;5040119;28;20209;-87
2021/03/27 08:56:05;;;;;;;1.00;0.87;;;8.00;82.40;;;;;;5004684;28;20250;-88
2021/03/27 08:59:03;;;;;;;1.47;1.23;;;8.30;81.40;;;;;;5023879;28;20201;-86
2021/03/27 09:08:10;;;;;;;0.90;0.80;;;8.70;78.60;;;;;;5024839;28;20202;-87
2021/03/27 09:17:34;;;;;;;1.70;1.00;;;9.50;74.40;;;;;;5044570;28;20201;-87
2021/03/27 09:23:47;;;;;;;1.77;1.50;;;10.90;65.30;;;;;;4989665;28;20239;-86
2021/03/27 09:26:39;;;;;;;2.13;0.93;;;11.50;62.60;;;;;;5048338;28;20199;-86
2021/03/27 09:29:24;;;;;;;2.60;0.90;;;11.80;57.40;;;;;;5044424;28;20183;-86
2021/03/27 09:32:18;;;;;;;1.33;1.10;;;11.70;58.20;;;;;;5037737;28;20220;-86
2021/03/27 09:35:09;;;;;;;1.25;0.93;;;11.80;58.30;;;;;;5042253;28;20217;-86
2021/03/27 09:41:41;;;;;;;2.40;1.10;;;11.50;59.40;;;;;;5049277;28;20182;-87
2021/03/27 09:44:35;;;;;;;1.38;0.90;;;11.50;57.50;;;;;;5012810;28;20233;-86
2021/03/27 09:47:15;;;;;;;1.48;1.20;;;11.80;56.10;;;;;;5026322;28;20225;-86
2021/03/27 09:49:58;;;;;;;1.30;1.13;;;12.20;55.70;;;;;;5032122;28;20222;-86
2021/03/27 09:52:56;;;;;;;2.60;1.30;;;12.50;53.60;;;;;;5046482;28;20198;-86
2021/03/27 09:55:39;;;;;;;1.23;0.90;;;12.50;51.40;;;;;;5039003;28;20261;-86
2021/03/27 10:01:33;;;;;;;1.27;1.10;;;12.60;53.30;;;;;;5022641;28;20234;-86
2021/03/27 10:04:34;;;;;;;2.88;1.20;;;12.50;51.70;;;;;;5046072;28;20210;-86
2021/03/27 10:07:25;;;;;;;1.92;1.40;;;12.90;49.40;;;;;;5040104;28;20257;-86
2021/03/27 10:10:18;;;;;;;3.40;2.08;;;13.70;45.20;;;;;;5052199;28;20228;-86
2021/03/27 10:12:58;;;;;;;2.33;1.00;;;13.70;44.90;;;;;;5064854;28;20211;-86
2021/03/27 10:15:46;;;;;;;5.25;1.13;;;14.20;40.10;;;;;;5063728;28;20228;-87
2021/03/27 10:18:22;;;;;;;4.45;0.80;;;13.60;37.50;;;;;;5049395;28;20190;-86
2021/03/27 10:20:51;;;;;;;2.63;0.90;;;13.40;35.90;;;;;;5047277;28;20232;-85
2021/03/27 10:23:36;;;;;;;2.78;0.88;;;13.40;35.60;;;;;;5060187;28;20253;-86
2021/03/27 10:26:35;;;;;;;1.35;0.82;;;13.80;36.60;;;;;;5059599;28;20226;-87
2021/03/27 10:29:34;;;;;;;4.53;1.73;;;14.40;33.00;;;;;;5037820;28;20320;-85
2021/03/27 10:36:10;;;;;;;2.30;0.98;;;13.10;37.40;;;;;;5066837;28;20299;-84
2021/03/27 10:39:09;;;;;;;2.65;1.20;;;12.40;39.00;;;;;;5066096;28;20224;-87
2021/03/27 10:42:04;;;;;;;2.25;1.05;;;11.80;40.00;;;;;;5060771;28;20217;-87
2021/03/27 10:44:36;;;;;;;1.45;1.25;;;11.50;41.10;;;;;;5058105;28;20223;-87
2021/03/27 10:50:34;;;;;;;2.08;1.13;;;11.10;42.80;;;;;;5046283;28;20221;-87
2021/03/27 10:53:13;;;;;;;1.52;0.90;;;10.70;43.80;;;;;;5046717;28;20191;-87
2021/03/27 10:56:04;;;;;;;19.73;7.80;;;10.50;46.40;;;;;;5047784;28;20290;-87
2021/03/27 10:58:55;;;;;;;3.03;1.15;;;10.20;47.00;;;;;;5040652;28;20198;-88
2021/03/27 11:01:48;;;;;;;1.52;1.42;;;10.00;46.80;;;;;;5023424;28;20236;-87
2021/03/27 11:05:02;;;;;;;3.78;1.60;;;9.80;50.70;;;;;;5037287;28;20246;-87
2021/03/27 11:08:18;;;;;;;2.88;1.30;;;9.80;50.70;;;;;;5035825;28;20264;-87
2021/03/27 11:14:53;;;;;;;2.45;1.20;;;9.80;51.30;;;;;;4935599;29;20193;-87
2021/03/27 11:17:50;;;;;;;5.18;1.85;;;9.80;53.80;;;;;;5039426;28;20296;-87
2021/03/27 11:20:40;;;;;;;2.60;1.05;;;9.70;54.10;;;;;;5059152;28;20252;-86
2021/03/27 11:23:25;;;;;;;1.45;1.10;;;9.50;55.60;;;;;;5060265;28;20209;-93
2021/03/27 11:26:28;;;;;;;1.17;1.08;;;9.50;58.10;;;;;;5048447;28;20272;-89
2021/03/27 11:28:59;;;;;;;11.18;4.15;;;9.30;60.70;;;;;;5059991;28;20259;-87
2021/03/27 11:31:38;;;;;;;1.10;0.95;;;9.30;61.30;;;;;;5045548;28;20237;-85
2021/03/27 11:34:14;;;;;;;1.10;1.00;;;9.50;63.80;;;;;;5025154;28;20278;-86
2021/03/27 11:36:45;;;;;;;1.50;1.13;;;9.50;66.70;;;;;;5040673;28;20229;-87
2021/03/27 11:39:21;;;;;;;1.60;1.17;;;9.50;67.50;;;;;;5035399;28;20576;-87
2021/03/27 11:41:59;;;;;;;1.30;1.20;;;9.50;68.60;;;;;;5034777;28;20206;-87
2021/03/27 11:44:47;;;;;;;2.20;1.30;;;9.50;68.00;;;;;;5039708;28;20214;-87
2021/03/27 11:47:45;;;;;;;2.88;1.15;;;9.50;68.70;;;;;;5018985;28;20188;-87
2021/03/27 11:50:34;;;;;;;2.30;1.20;;;9.50;64.50;;;;;;5035425;28;20228;-87
2021/03/27 12:05:45;;;;;;;2.67;1.17;;;10.10;56.40;;;;;;5022507;28;20254;-87
2021/03/27 12:08:21;;;;;;;1.45;1.08;;;10.20;57.80;;;;;;5024264;28;20202;-87
2021/03/27 12:11:00;;;;;;;2.15;1.17;;;10.30;56.10;;;;;;5030929;28;20237;-88
2021/03/27 12:13:33;;;;;;;1.67;1.00;;;10.60;54.80;;;;;;5027755;28;20199;-88
2021/03/27 12:16:13;;;;;;;2.47;1.40;;;10.50;55.60;;;;;;5021860;28;20259;-86
2021/03/27 12:19:20;;;;;;;3.28;1.50;;;10.50;54.30;;;;;;5044967;28;20230;-88
2021/03/27 12:21:55;;;;;;;1.25;1.13;;;10.70;54.60;;;;;;5051141;28;20262;-87
2021/03/27 12:24:34;;;;;;;3.25;1.23;;;10.80;51.70;;;;;;5061087;28;20217;-88
2021/03/27 12:27:08;;;;;;;1.70;1.13;;;10.90;51.20;;;;;;5025947;28;20203;-87
2021/03/27 12:29:41;;;;;;;1.63;1.00;;;10.90;50.40;;;;;;5024006;28;20311;-88
2021/03/27 12:53:06;;;;;;;1.90;1.30;;;11.20;51.20;;;;;;5601466;22;20224;-85
2021/03/27 12:55:40;;;;;;;1.40;1.20;;;11.10;51.00;;;;;;5087209;28;20292;-84
2021/03/27 13:05:05;;;;;;;4.03;1.83;;;11.40;48.10;;;;;;5077751;28;20283;-85
2021/03/27 13:07:54;;;;;;;3.08;1.30;;;11.40;48.00;;;;;;5075034;28;20208;-85
2021/03/27 13:10:46;;;;;;;2.08;1.42;;;11.30;48.40;;;;;;5088417;28;20285;-85
2021/03/27 13:14:00;;;;;;;1.58;1.20;;;11.40;44.00;;;;;;5095876;28;20224;-85
2021/03/27 13:16:32;;;;;;;1.50;1.20;;;11.30;42.60;;;;;;5076851;28;20229;-85
2021/03/27 13:22:23;;;;;;;2.38;1.25;;;11.20;41.90;;;;;;5078844;28;20342;-85
2021/03/27 13:25:18;;;;;;;4.30;1.40;;;11.10;44.00;;;;;;5088195;28;20225;-85
2021/03/27 13:27:49;;;;;;;3.38;1.10;;;11.30;41.00;;;;;;5082031;28;20226;-85
2021/03/27 13:30:29;;;;;;;1.60;0.98;;;11.60;40.10;;;;;;5108324;28;20227;-85
2021/03/27 13:33:08;;;;;;;2.88;1.20;;;11.70;41.20;;;;;;5099995;28;20193;-85
2021/03/27 13:36:03;;;;;;;2.05;1.17;;;11.50;40.70;;;;;;5088886;28;20209;-85
2021/03/27 13:38:36;;;;;;;2.63;1.30;;;11.60;41.80;;;;;;5079732;28;20221;-85
2021/03/27 13:44:31;;;;;;;2.60;1.60;;;11.20;41.60;;;;;;5087377;28;20236;-85
2021/03/27 13:47:08;;;;;;;5.47;1.30;;;11.20;43.30;;;;;;5086531;28;20193;-85
2021/03/27 13:49:41;;;;;;;4.05;1.50;;;11.10;41.50;;;;;;5087454;28;20225;-85
2021/03/27 13:53:01;;;;;;;1.77;1.40;;;11.30;42.70;;;;;;5085732;28;20205;-85
2021/03/27 13:59:26;;;;;;;4.45;1.77;;;11.20;39.80;;;;;;5084742;28;20188;-85
2021/03/27 14:02:32;;;;;;;2.33;1.15;;;11.20;42.20;;;;;;5075204;28;20216;-85
2021/03/27 14:09:13;;;;;;;1.42;1.17;;;11.50;41.00;;;;;;5100308;28;20180;-86
2021/03/27 14:11:50;;;;;;;4.00;1.77;;;12.00;38.00;;;;;;5075691;28;20221;-85
2021/03/27 14:14:22;;;;;;;2.28;1.15;;;12.30;37.70;;;;;;5086634;28;20546;-85
2021/03/27 14:17:00;;;;;;;1.92;1.33;;;12.10;37.60;;;;;;5086802;28;20197;-85
2021/03/27 14:19:53;;;;;;;4.28;1.38;;;12.10;37.50;;;;;;5087286;28;20196;-87
2021/03/27 14:26:10;;;;;;;2.85;1.65;;;12.50;38.20;;;;;;5062148;28;20229;-88
2021/03/27 14:29:12;;;;;;;5.35;1.42;;;12.50;37.00;;;;;;5061879;28;20186;-88
2021/03/27 14:31:46;;;;;;;2.25;1.20;;;12.40;37.20;;;;;;5062026;28;20213;-88
2021/03/27 14:35:01;;;;;;;2.05;1.15;;;12.20;37.30;;;;;;5074762;28;20200;-88
2021/03/27 14:37:49;;;;;;;2.40;1.38;;;11.90;38.00;;;;;;5102672;28;20187;-88
2021/03/27 14:40:34;;;;;;;2.95;1.27;;;11.80;38.20;;;;;;5101590;28;20235;-88
2021/03/27 14:43:27;;;;;;;3.00;1.30;;;11.70;40.00;;;;;;5096271;28;20212;-87
2021/03/27 14:46:27;;;;;;;3.72;1.45;;;11.50;38.60;;;;;;5097480;28;20293;-88
2021/03/27 14:49:11;;;;;;;2.22;1.30;;;11.40;38.50;;;;;;5100773;28;20192;-88
2021/03/27 14:58:13;;;;;;;2.63;1.40;;;11.60;38.80;;;;;;5064401;28;20293;-88
2021/03/27 15:00:49;;;;;;;2.53;1.40;;;11.60;39.20;;;;;;5089357;28;20224;-87
2021/03/27 15:03:23;;;;;;;1.25;1.10;;;11.50;39.90;;;;;;5068105;28;20292;-85
2021/03/27 15:05:52;;;;;;;4.40;1.20;;;11.40;39.00;;;;;;5072385;28;20284;-84
2021/03/27 15:08:34;;;;;;;5.00;1.48;;;11.30;39.30;;;;;;5084189;28;20203;-84
2021/03/27 15:11:15;;;;;;;3.22;1.30;;;11.20;40.20;;;;;;5086041;28;20642;-85
2021/03/27 15:13:55;;;;;;;5.15;1.65;;;11.10;40.60;;;;;;5101229;28;20339;-88
2021/03/27 15:16:43;;;;;;;1.90;1.42;;;11.00;39.30;;;;;;5083183;28;20227;-85
2021/03/27 15:22:37;;;;;;;2.20;1.33;;;10.80;39.30;;;;;;5078916;28;20208;-85
2021/03/27 15:31:26;;;;;;;3.33;1.30;;;10.80;39.40;;;;;;5090728;28;20303;-87
2021/03/27 15:34:13;;;;;;;3.22;1.40;;;10.80;39.10;;;;;;5082581;28;20189;-87
2021/03/27 15:57:45;;;;;;;2.22;1.33;;;11.10;37.80;;;;;;5943563;22;20238;-85
2021/03/27 16:00:22;;;;;;;3.85;1.30;;;11.10;38.20;;;;;;5088320;28;20259;-85
2021/03/27 16:09:27;;;;;;;3.15;1.48;;;11.00;38.30;;;;;;4925281;29;20276;-85
2021/03/27 16:12:27;;;;;;;3.13;1.30;;;11.00;38.50;;;;;;4896874;29;20207;-84
2021/03/27 16:18:38;;;;;;;1.52;1.33;;;10.80;39.60;;;;;;4915929;29;20213;-86
2021/03/27 16:24:27;;;;;;;2.53;1.50;;;10.60;40.20;;;;;;5002516;28;20258;-86
2021/03/27 16:34:13;;;;;;;2.65;1.40;;;10.40;39.60;;;;;;5002987;28;20207;-86
2021/03/27 16:37:25;;;;;;;2.22;1.30;;;10.50;39.90;;;;;;5043988;28;20208;-85
2021/03/27 16:55:14;;;;;;;3.42;1.80;;;10.20;38.70;;;;;;5085076;28;20223;-86
2021/03/27 17:04:45;;;;;;;1.80;1.40;;;10.10;36.20;;;;;;5063490;28;20220;-86
2021/03/27 17:10:11;;;;;;;5.85;1.30;;;10.10;35.90;;;;;;5074853;28;20238;-86
2021/03/27 17:13:16;;;;;;;5.05;1.38;;;10.10;35.70;;;;;;5083354;28;20201;-86
2021/03/27 17:19:42;;;;;;;2.22;1.10;;;9.90;38.30;;;;;;5083407;28;20192;-86